createdAt,value
2023-01-07T00:01:39.961Z,100609.50
2023-01-07T00:06:43.869Z,100612.47
2023-01-07T00:11:46.039Z,100615.16
2023-01-07T00:16:47.677Z,100607.25
2023-01-07T00:21:49.258Z,100601.34
2023-01-07T00:26:50.894Z,100599.22
2023-01-07T00:31:53.750Z,100594.72
2023-01-07T00:37:15.359Z,100590.19
2023-01-07T00:42:35.247Z,100601.88
2023-01-07T00:47:36.999Z,100595.53
2023-01-07T00:52:38.673Z,100595.41
2023-01-07T00:57:41.067Z,100595.69
2023-01-07T01:02:43.072Z,100590.06
2023-01-07T01:07:45.165Z,100587.41
2023-01-07T01:12:49.311Z,100596.69
2023-01-07T01:17:51.852Z,100593.59
2023-01-07T01:22:53.548Z,100602.47
2023-01-07T01:27:55.184Z,100592.88
2023-01-07T01:32:56.785Z,100596.09
2023-01-07T01:38:00.417Z,100591.03
2023-01-07T01:43:04.402Z,100585.81
2023-01-07T01:48:08.543Z,100591.44
2023-01-07T01:53:26.738Z,100594.97
2023-01-07T01:58:35.163Z,100583.72
2023-01-07T02:03:38.157Z,100583.97
2023-01-07T02:08:40.147Z,100576.94
2023-01-07T02:14:06.266Z,100576.38
2023-01-07T02:19:25.400Z,100572.56
2023-01-07T02:24:45.725Z,100569.06
2023-01-07T02:30:05.978Z,100566.25
2023-01-07T02:35:10.797Z,100561.44
2023-01-07T02:40:43.778Z,100552.56
2023-01-07T02:46:04.165Z,100549.47
2023-01-07T02:51:06.124Z,100551.53
2023-01-07T02:56:21.216Z,100549.75
2023-01-07T03:01:25.812Z,100546.78
2023-01-07T03:06:56.755Z,100550.19
2023-01-07T03:12:14.362Z,100544.25
2023-01-07T03:17:20.769Z,100551.00
2023-01-07T03:22:25.529Z,100557.78
2023-01-07T03:27:29.082Z,100553.53
2023-01-07T03:32:55.566Z,100552.69
2023-01-07T03:37:58.615Z,100552.13
2023-01-07T03:43:00.468Z,100556.50
2023-01-07T03:48:02.122Z,100553.25
2023-01-07T03:53:09.958Z,100547.34
2023-01-07T03:58:13.440Z,100541.97
2023-01-07T04:03:15.139Z,100549.03
2023-01-07T04:08:20.332Z,100533.53
2023-01-07T04:13:22.126Z,100528.22
2023-01-07T04:18:25.385Z,100526.81
2023-01-07T04:23:27.522Z,100523.84
2023-01-07T04:28:30.322Z,100521.91
2023-01-07T04:33:32.625Z,100511.47
2023-01-07T04:38:34.454Z,100509.91
2023-01-07T04:43:36.297Z,100512.31
2023-01-07T04:48:40.564Z,100509.81
2023-01-07T04:53:42.444Z,100510.22
2023-01-07T04:58:44.519Z,100512.19
2023-01-07T05:03:46.248Z,100509.22
2023-01-07T05:08:49.198Z,100500.53
2023-01-07T05:13:51.091Z,100510.22
2023-01-07T05:18:53.857Z,100502.47
2023-01-07T05:23:55.655Z,100492.78
2023-01-07T05:28:58.810Z,100494.88
2023-01-07T05:34:00.573Z,100489.66
2023-01-07T05:39:03.923Z,100485.72
2023-01-07T05:44:05.753Z,100494.56
2023-01-07T05:49:07.419Z,100491.91
2023-01-07T05:54:09.264Z,100493.88
2023-01-07T05:59:10.861Z,100506.56
2023-01-07T06:04:12.548Z,100495.84
2023-01-07T06:09:14.157Z,100491.34
2023-01-07T06:14:15.730Z,100489.81
2023-01-07T06:19:17.344Z,100494.59
2023-01-07T06:24:19.012Z,100487.69
2023-01-07T06:29:20.627Z,100501.38
2023-01-07T06:34:22.232Z,100491.09
2023-01-07T06:39:23.773Z,100493.03
2023-01-07T06:44:25.420Z,100499.25
2023-01-07T06:49:27.008Z,100494.41
2023-01-07T06:54:28.675Z,100497.09
2023-01-07T06:59:30.240Z,100490.78
2023-01-07T07:04:31.870Z,100496.53
2023-01-07T07:09:33.454Z,100496.00
2023-01-07T07:14:35.246Z,100501.50
2023-01-07T07:19:36.951Z,100508.81
2023-01-07T07:24:38.523Z,100508.81
2023-01-07T07:29:40.193Z,100509.94
2023-01-07T07:34:41.788Z,100507.69
2023-01-07T07:39:43.471Z,100503.63
2023-01-07T07:44:45.115Z,100499.97
2023-01-07T07:49:46.763Z,100503.72
2023-01-07T07:54:48.357Z,100495.00
2023-01-07T07:59:49.908Z,100495.59
2023-01-07T08:04:51.504Z,100490.38
2023-01-07T08:09:53.227Z,100490.81
2023-01-07T08:14:54.795Z,100491.94
2023-01-07T08:19:56.557Z,100490.38
2023-01-07T08:24:58.180Z,100494.59
2023-01-07T08:29:59.769Z,100500.06
2023-01-07T08:35:01.445Z,100498.09
2023-01-07T08:40:05.780Z,100500.53
2023-01-07T08:45:09.081Z,100502.03
2023-01-07T08:50:10.660Z,100505.13
2023-01-07T08:55:12.232Z,100489.22
2023-01-07T09:00:16.157Z,100489.94
2023-01-07T09:05:18.200Z,100487.38
2023-01-07T09:10:20.316Z,100478.75
2023-01-07T09:15:21.909Z,100482.16
2023-01-07T09:20:23.574Z,100479.16
2023-01-07T09:25:25.169Z,100476.56
2023-01-07T09:30:26.742Z,100474.88
2023-01-07T09:35:28.319Z,100465.72
2023-01-07T09:40:34.738Z,100457.09
2023-01-07T09:45:40.363Z,100457.22
2023-01-07T09:50:50.861Z,100450.28
2023-01-07T09:56:10.909Z,100447.78
2023-01-07T10:01:24.721Z,100451.25
2023-01-07T10:06:43.873Z,100440.66
2023-01-07T10:12:03.199Z,100425.66
2023-01-07T10:17:14.043Z,100430.41
2023-01-07T10:22:15.551Z,100422.09
2023-01-07T10:27:21.046Z,100417.19
2023-01-07T10:32:25.128Z,100415.44
2023-01-07T10:37:35.556Z,100413.44
2023-01-07T10:42:43.427Z,100396.22
2023-01-07T10:48:12.970Z,100399.03
2023-01-07T10:53:39.418Z,100389.50
2023-01-07T10:58:43.391Z,100384.03
2023-01-07T11:03:49.176Z,100357.41
2023-01-07T11:08:50.732Z,100348.66
2023-01-07T11:13:58.644Z,100334.56
2023-01-07T11:19:09.117Z,100333.84
2023-01-07T11:24:19.618Z,100321.53
2023-01-07T11:29:26.248Z,100310.06
2023-01-07T11:34:37.260Z,100310.06
2023-01-07T11:39:39.136Z,100292.84
2023-01-07T11:44:40.731Z,100289.47
2023-01-07T11:49:44.489Z,100281.91
2023-01-07T11:54:51.071Z,100279.91
2023-01-07T12:00:16.386Z,100286.03
2023-01-07T12:05:22.153Z,100275.97
2023-01-07T12:10:35.674Z,100277.97
2023-01-07T12:15:46.087Z,100272.44
2023-01-07T12:21:22.872Z,100259.63
2023-01-07T12:26:43.428Z,100259.63
2023-01-07T12:32:03.931Z,100251.66
2023-01-07T12:37:13.845Z,100248.59
2023-01-07T12:42:24.696Z,100234.75
2023-01-07T12:47:42.159Z,100229.25
2023-01-07T12:52:54.076Z,100222.69
2023-01-07T12:58:03.488Z,100219.06
2023-01-07T13:03:23.512Z,100205.00
2023-01-07T13:08:44.794Z,100196.97
2023-01-07T13:13:51.952Z,100198.59
2023-01-07T13:18:53.889Z,100207.69
2023-01-07T13:24:54.874Z,100194.16
2023-01-07T13:30:20.592Z,100191.16
2023-01-07T13:35:30.953Z,100195.91
2023-01-07T13:41:00.353Z,100184.06
2023-01-07T13:46:30.991Z,100193.38
2023-01-07T13:51:36.893Z,100187.34
2023-01-07T13:56:39.481Z,100191.00
2023-01-07T14:02:14.610Z,100180.78
2023-01-07T14:07:17.076Z,100174.25
2023-01-07T14:12:49.631Z,100178.19
2023-01-07T14:18:06.086Z,100170.56
2023-01-07T14:23:41.154Z,100159.16
2023-01-07T14:29:20.515Z,100157.44
2023-01-07T14:34:26.572Z,100148.69
2023-01-07T14:39:36.802Z,100145.69
2023-01-07T14:44:38.449Z,100146.56
2023-01-07T14:50:20.254Z,100133.16
2023-01-07T14:55:24.424Z,100137.50
2023-01-07T15:00:47.747Z,100133.78
2023-01-07T15:06:08.136Z,100124.47
2023-01-07T15:11:34.937Z,100126.56
2023-01-07T15:16:37.017Z,100118.72
2023-01-07T15:22:18.278Z,100120.47
2023-01-07T15:27:32.267Z,100116.69
2023-01-07T15:32:52.519Z,100117.75
2023-01-07T15:37:54.233Z,100120.47
2023-01-07T15:42:57.633Z,100120.06
2023-01-07T15:48:12.434Z,100119.44
2023-01-07T15:53:13.954Z,100108.59
2023-01-07T15:58:32.469Z,100114.38
2023-01-07T16:03:38.508Z,100106.50
2023-01-07T16:08:44.111Z,100110.19
2023-01-07T16:13:56.007Z,100100.31
2023-01-07T16:19:02.240Z,100093.91
2023-01-07T16:24:05.003Z,100090.00
2023-01-07T16:29:09.076Z,100079.91
2023-01-07T16:34:25.956Z,100072.53
2023-01-07T16:39:30.322Z,100067.59
2023-01-07T16:44:58.230Z,100058.53
2023-01-07T16:50:14.889Z,100059.91
2023-01-07T16:55:44.275Z,100053.28
2023-01-07T17:00:49.323Z,100046.44
2023-01-07T17:06:07.303Z,100034.91
2023-01-07T17:11:28.841Z,100034.69
2023-01-07T17:16:34.814Z,100029.09
2023-01-07T17:21:43.040Z,100015.03
2023-01-07T17:26:44.880Z,100016.34
2023-01-07T17:31:46.926Z,100014.50
2023-01-07T17:36:48.548Z,100017.97
2023-01-07T17:42:08.858Z,100018.94
2023-01-07T17:47:10.911Z,100014.41
2023-01-07T17:52:12.496Z,100013.38
2023-01-07T17:57:14.060Z,100006.00
2023-01-07T18:02:19.576Z,100003.69
2023-01-07T18:07:21.229Z,100011.25
2023-01-07T18:12:31.989Z,100007.91
2023-01-07T18:17:33.574Z,99997.31
2023-01-07T18:22:35.174Z,99990.84
2023-01-07T18:27:36.800Z,99989.72
2023-01-07T18:32:38.393Z,99999.34
2023-01-07T18:37:40.563Z,99991.22
2023-01-07T18:42:42.144Z,99978.09
2023-01-07T18:47:43.775Z,99986.53
2023-01-07T18:52:45.391Z,99982.31
2023-01-07T18:57:47.065Z,99987.34
2023-01-07T19:02:48.962Z,99983.47
2023-01-07T19:07:50.689Z,99984.59
2023-01-07T19:12:52.356Z,99984.00
2023-01-07T19:17:53.911Z,99970.03
2023-01-07T19:23:00.271Z,99973.53
2023-01-07T19:28:02.026Z,99969.22
2023-01-07T19:33:03.727Z,99976.94
2023-01-07T19:38:06.784Z,99984.25
2023-01-07T19:43:08.416Z,99980.66
2023-01-07T19:48:10.101Z,99978.78
2023-01-07T19:53:12.747Z,99967.84
2023-01-07T19:58:14.418Z,99956.94
2023-01-07T20:03:15.998Z,99955.22
2023-01-07T20:08:17.566Z,99945.13
2023-01-07T20:13:19.177Z,99951.31
2023-01-07T20:18:21.653Z,99929.19
2023-01-07T20:23:23.350Z,99927.34
2023-01-07T20:28:24.916Z,99912.34
2023-01-07T20:33:26.708Z,99917.13
2023-01-07T20:38:28.660Z,99913.78
2023-01-07T20:43:34.295Z,99905.34
2023-01-07T20:48:36.665Z,99908.44
2023-01-07T20:53:38.343Z,99908.59
2023-01-07T20:58:39.972Z,99908.03
2023-01-07T21:03:42.205Z,99898.94
2023-01-07T21:08:44.902Z,99894.56
2023-01-07T21:13:47.256Z,99894.16
2023-01-07T21:18:48.952Z,99880.53
2023-01-07T21:23:51.650Z,99876.19
2023-01-07T21:28:55.871Z,99865.00
2023-01-07T21:33:57.932Z,99863.44
2023-01-07T21:39:00.304Z,99855.75
2023-01-07T21:44:03.200Z,99839.75
2023-01-07T21:49:06.048Z,99849.56
2023-01-07T21:54:07.700Z,99847.63
2023-01-07T21:59:10.009Z,99838.66
2023-01-07T22:04:11.768Z,99835.28
2023-01-07T22:09:14.895Z,99826.88
2023-01-07T22:14:18.518Z,99839.22
2023-01-07T22:19:20.140Z,99839.50
2023-01-07T22:24:21.750Z,99829.41
2023-01-07T22:29:23.354Z,99827.72
2023-01-07T22:34:25.367Z,99823.22
2023-01-07T22:39:31.648Z,99817.34
2023-01-07T22:44:40.318Z,99815.50
2023-01-07T22:49:42.375Z,99808.09
2023-01-07T22:54:44.135Z,99808.19
2023-01-07T22:59:47.122Z,99793.50
2023-01-07T23:04:48.863Z,99788.31
2023-01-07T23:09:51.647Z,99788.03
2023-01-07T23:14:53.325Z,99788.97
2023-01-07T23:19:54.889Z,99797.13
2023-01-07T23:24:56.437Z,99794.16
2023-01-07T23:29:58.656Z,99783.63
2023-01-07T23:35:00.271Z,99784.63
2023-01-07T23:40:01.949Z,99771.69
2023-01-07T23:45:07.040Z,99766.56
2023-01-07T23:50:08.968Z,99758.81
2023-01-07T23:55:10.599Z,99748.31
